createdAt,value
2019-03-22T00:28:26.733Z,6.10
2019-03-22T00:31:00.103Z,6.00
2019-03-22T00:33:33.486Z,5.90
2019-03-22T00:36:08.962Z,5.90
2019-03-22T00:38:43.372Z,5.90
2019-03-22T00:41:17.201Z,5.80
2019-03-22T00:43:50.513Z,5.70
2019-03-22T00:46:24.020Z,5.70
2019-03-22T00:48:57.260Z,5.70
2019-03-22T00:51:30.656Z,5.80
2019-03-22T00:54:03.943Z,5.80
2019-03-22T00:56:37.356Z,5.80
2019-03-22T00:59:12.188Z,5.80
2019-03-22T01:01:46.619Z,5.80
2019-03-22T01:04:19.816Z,5.80
2019-03-22T01:06:53.116Z,5.80
2019-03-22T01:09:26.493Z,5.80
2019-03-22T01:11:59.929Z,5.80
2019-03-22T01:14:34.461Z,5.90
2019-03-22T01:17:07.792Z,5.90
2019-03-22T01:19:41.144Z,5.90
2019-03-22T01:22:14.533Z,5.90
2019-03-22T01:24:47.932Z,5.90
2019-03-22T01:37:20.195Z,6.10
2019-03-22T01:39:58.921Z,6.10
2019-03-22T01:42:32.283Z,6.10
2019-03-22T01:45:15.335Z,6.10
2019-03-22T01:47:48.601Z,6.10
2019-03-22T02:03:25.921Z,5.90
2019-03-22T02:05:59.345Z,5.90
2019-03-22T02:08:32.712Z,5.80
2019-03-22T02:11:06.122Z,5.80
2019-03-22T02:13:39.407Z,5.80
2019-03-22T02:16:14.018Z,5.80
2019-03-22T02:18:47.438Z,5.70
2019-03-22T02:21:20.874Z,5.70
2019-03-22T02:23:54.322Z,5.70
2019-03-22T02:26:27.753Z,5.80
2019-03-22T02:29:01.101Z,5.80
2019-03-22T02:31:34.503Z,5.80
2019-03-22T02:34:09.059Z,5.90
2019-03-22T02:36:45.367Z,5.90
2019-03-22T02:39:19.729Z,6.00
2019-03-22T02:41:53.021Z,6.00
2019-03-22T02:48:11.642Z,6.00
2019-03-22T02:50:44.934Z,6.10
2019-03-22T02:59:51.617Z,6.00
2019-03-22T03:02:24.983Z,5.90
2019-03-22T03:04:58.368Z,5.90
2019-03-22T03:07:34.083Z,5.80
2019-03-22T03:10:11.435Z,5.80
2019-03-22T03:12:45.675Z,5.80
2019-03-22T03:15:21.954Z,5.80
2019-03-22T03:17:55.262Z,5.80
2019-03-22T03:23:31.994Z,5.80
2019-03-22T03:26:05.373Z,5.90
2019-03-22T03:28:38.664Z,5.90
2019-03-22T03:31:12.079Z,6.00
2019-03-22T03:33:45.535Z,5.90
2019-03-22T03:36:18.985Z,5.90
2019-03-22T03:39:08.538Z,6.00
2019-03-22T03:41:41.902Z,6.00
2019-03-22T03:44:15.363Z,6.00
2019-03-22T03:46:49.763Z,6.00
2019-03-22T03:49:23.198Z,6.10
2019-03-22T03:51:56.594Z,6.10
2019-03-22T03:54:29.943Z,6.10
2019-03-22T03:57:03.347Z,6.20
2019-03-22T03:59:36.706Z,6.20
2019-03-22T04:05:14.581Z,6.30
2019-03-22T04:07:47.937Z,6.50
2019-03-22T04:10:21.313Z,6.60
2019-03-22T04:12:54.702Z,6.60
2019-03-22T04:15:28.070Z,6.80
2019-03-22T04:18:02.626Z,6.70
2019-03-22T04:20:35.947Z,6.80
2019-03-22T04:23:09.276Z,6.80
2019-03-22T04:25:42.610Z,6.80
2019-03-22T04:28:17.465Z,6.90
2019-03-22T04:37:44.675Z,7.00
2019-03-22T04:40:30.246Z,7.10
2019-03-22T04:43:03.810Z,7.10
2019-03-22T04:45:40.496Z,7.20
2019-03-22T04:48:30.270Z,7.20
2019-03-22T04:51:07.542Z,7.20
2019-03-22T04:54:07.735Z,7.20
2019-03-22T04:56:42.510Z,7.20
2019-03-22T04:59:22.034Z,7.20
2019-03-22T05:01:58.970Z,7.30
2019-03-22T05:04:33.264Z,7.30
2019-03-22T05:07:07.237Z,7.30
2019-03-22T05:15:58.973Z,7.40
2019-03-22T05:18:25.823Z,7.30
2019-03-22T05:18:34.693Z,7.40
2019-03-22T05:21:11.241Z,7.40
2019-03-22T05:23:45.936Z,7.40
2019-03-22T05:29:49.212Z,7.40
2019-03-22T05:32:22.685Z,7.50
2019-03-22T05:34:56.129Z,7.50
2019-03-22T05:37:29.388Z,7.50
2019-03-22T05:40:04.471Z,7.50
2019-03-22T05:42:37.836Z,7.50
2019-03-22T05:45:11.254Z,7.50
2019-03-22T05:50:52.115Z,7.60
2019-03-22T05:53:25.472Z,7.60
2019-03-22T05:55:58.833Z,7.60
2019-03-22T05:58:32.955Z,7.60
2019-03-22T06:01:06.376Z,7.70
2019-03-22T06:03:39.651Z,7.60
2019-03-22T06:06:13.041Z,7.70
2019-03-22T06:08:46.373Z,7.70
2019-03-22T06:11:21.951Z,7.70
2019-03-22T06:13:59.412Z,7.70
2019-03-22T06:16:33.419Z,7.70
2019-03-22T06:19:08.684Z,7.80
2019-03-22T06:21:42.123Z,7.80
2019-03-22T06:24:15.544Z,7.70
2019-03-22T06:26:48.984Z,7.80
2019-03-22T06:29:22.383Z,7.80
2019-03-22T06:31:55.696Z,7.80
2019-03-22T06:34:29.074Z,7.80
2019-03-22T06:37:03.246Z,7.80
2019-03-22T06:39:46.684Z,7.80
2019-03-22T06:42:20.054Z,7.80
2019-03-22T06:44:53.414Z,7.90
2019-03-22T06:47:27.934Z,7.80
2019-03-22T06:50:02.865Z,7.90
2019-03-22T06:52:36.583Z,7.90
2019-03-22T06:55:10.254Z,7.90
2019-03-22T06:57:47.719Z,8.00
2019-03-22T07:00:22.052Z,8.00
2019-03-22T07:02:55.459Z,8.00
2019-03-22T07:05:28.805Z,8.00
2019-03-22T07:08:02.158Z,8.00
2019-03-22T07:10:35.568Z,8.10
2019-03-22T07:13:08.771Z,8.00
2019-03-22T07:15:42.082Z,8.00
2019-03-22T07:18:15.479Z,8.10
2019-03-22T07:20:48.872Z,8.10
2019-03-22T07:23:22.161Z,8.10
2019-03-22T07:25:55.627Z,8.10
2019-03-22T07:28:28.927Z,8.10
2019-03-22T07:31:11.350Z,8.00
2019-03-22T07:33:46.435Z,8.00
2019-03-22T07:36:21.094Z,8.10
2019-03-22T07:38:54.452Z,8.00
2019-03-22T07:44:07.892Z,8.10
2019-03-22T07:46:41.245Z,8.00
2019-03-22T07:49:15.502Z,8.10
2019-03-22T07:51:49.775Z,8.20
2019-03-22T07:54:23.226Z,8.20
2019-03-22T07:56:59.481Z,8.20
2019-03-22T07:59:32.870Z,8.30
2019-03-22T08:02:06.265Z,8.30
2019-03-22T08:04:39.570Z,8.30
2019-03-22T08:07:13.131Z,8.40
2019-03-22T08:09:46.707Z,8.50
2019-03-22T08:12:20.189Z,8.50
2019-03-22T08:14:55.034Z,8.60
2019-03-22T08:17:28.424Z,8.70
2019-03-22T08:20:01.722Z,8.70
2019-03-22T08:22:35.994Z,8.80
2019-03-22T08:25:09.325Z,8.90
2019-03-22T08:27:42.708Z,9.00
2019-03-22T08:30:16.211Z,9.20
2019-03-22T08:32:50.597Z,9.20
2019-03-22T08:35:24.072Z,9.30
2019-03-22T08:37:57.514Z,9.50
2019-03-22T08:40:30.930Z,9.30
2019-03-22T08:43:04.279Z,9.30
2019-03-22T08:45:37.521Z,9.40
2019-03-22T08:48:10.963Z,9.30
2019-03-22T08:50:44.349Z,9.20
2019-03-22T08:55:57.655Z,9.30
2019-03-22T08:58:32.294Z,9.30
2019-03-22T09:03:57.064Z,9.40
2019-03-22T09:06:30.572Z,9.30
2019-03-22T09:09:06.118Z,9.40
2019-03-22T09:11:42.783Z,9.40
2019-03-22T09:14:16.246Z,9.50
2019-03-22T09:16:50.667Z,9.50
2019-03-22T09:19:24.376Z,9.50
2019-03-22T09:21:59.615Z,9.50
2019-03-22T09:24:39.036Z,9.60
2019-03-22T09:29:49.361Z,9.70
2019-03-22T09:32:24.150Z,9.60
2019-03-22T09:34:59.773Z,9.70
2019-03-22T09:37:32.591Z,9.80
2019-03-22T09:40:10.906Z,10.00
2019-03-22T09:42:44.352Z,10.10
2019-03-22T09:45:17.745Z,10.10
2019-03-22T09:47:51.182Z,10.10
2019-03-22T09:50:24.617Z,10.00
2019-03-22T09:52:57.994Z,10.00
2019-03-22T09:55:31.417Z,10.00
2019-03-22T09:58:05.041Z,10.00
2019-03-22T10:00:38.686Z,10.00
2019-03-22T10:03:12.190Z,10.00
2019-03-22T10:05:59.910Z,10.00
2019-03-22T10:08:34.379Z,10.10
2019-03-22T10:11:07.866Z,10.10
2019-03-22T10:13:41.392Z,10.20
2019-03-22T10:19:07.596Z,10.30
2019-03-22T10:21:41.970Z,10.40
2019-03-22T10:24:15.482Z,10.50
2019-03-22T10:26:49.005Z,10.40
2019-03-22T10:29:24.162Z,10.40
2019-03-22T10:31:57.439Z,10.40
2019-03-22T10:34:41.709Z,10.40
2019-03-22T10:37:15.079Z,10.60
2019-03-22T10:39:51.546Z,10.60
2019-03-22T10:42:25.009Z,10.50
2019-03-22T10:44:58.280Z,10.50
2019-03-22T10:47:31.643Z,10.50
2019-03-22T10:50:08.139Z,10.50
2019-03-22T10:52:41.600Z,10.50
2019-03-22T10:55:29.329Z,10.50
2019-03-22T10:57:50.162Z,10.50
2019-03-22T11:00:23.612Z,10.50
2019-03-22T11:02:58.492Z,10.50
2019-03-22T11:05:31.833Z,10.50
2019-03-22T11:08:05.335Z,10.50
2019-03-22T11:10:38.806Z,10.50
2019-03-22T11:13:32.582Z,10.50
2019-03-22T11:16:11.424Z,10.50
2019-03-22T11:18:44.836Z,10.50
2019-03-22T11:21:18.343Z,10.60
2019-03-22T11:23:51.705Z,10.60
2019-03-22T11:26:26.327Z,10.70
2019-03-22T11:28:59.734Z,10.70
2019-03-22T11:31:39.795Z,10.70
2019-03-22T11:34:08.193Z,10.70
2019-03-22T11:36:41.642Z,10.70
2019-03-22T11:39:16.031Z,10.70
2019-03-22T11:41:49.609Z,10.70
2019-03-22T11:44:23.046Z,10.70
2019-03-22T11:46:56.456Z,10.70
2019-03-22T11:52:10.674Z,10.60
2019-03-22T11:54:44.015Z,10.60
2019-03-22T11:57:17.459Z,10.60
2019-03-22T11:59:50.842Z,10.60
2019-03-22T12:02:24.464Z,10.60
2019-03-22T12:04:57.679Z,10.60
2019-03-22T12:07:31.115Z,10.50
2019-03-22T12:10:07.997Z,10.50
2019-03-22T12:12:41.404Z,10.50
2019-03-22T12:15:21.942Z,10.50
2019-03-22T12:17:55.331Z,10.60
2019-03-22T12:20:28.672Z,10.60
2019-03-22T12:23:02.064Z,10.60
2019-03-22T12:25:35.636Z,10.60
2019-03-22T12:28:09.068Z,10.60
2019-03-22T12:30:42.463Z,10.60
2019-03-22T12:33:15.920Z,10.60
2019-03-22T12:35:49.596Z,10.60
2019-03-22T12:38:22.954Z,10.60
2019-03-22T12:40:56.378Z,10.50
2019-03-22T12:43:30.823Z,10.60
2019-03-22T12:46:04.294Z,10.60
2019-03-22T12:48:37.676Z,10.60
2019-03-22T12:51:11.187Z,10.60
2019-03-22T12:53:45.528Z,10.70
2019-03-22T12:56:19.439Z,10.70
2019-03-22T12:58:53.003Z,10.70
2019-03-22T13:01:26.490Z,10.70
2019-03-22T13:03:59.965Z,10.70
2019-03-22T13:06:33.422Z,10.70
2019-03-22T13:09:09.281Z,10.70
2019-03-22T13:11:51.185Z,10.80
2019-03-22T13:14:24.678Z,10.70
2019-03-22T13:16:58.083Z,10.70
2019-03-22T13:19:32.583Z,10.60
2019-03-22T13:22:06.019Z,10.60
2019-03-22T13:27:49.254Z,10.60
2019-03-22T13:30:35.439Z,10.50
2019-03-22T13:33:08.855Z,10.50
2019-03-22T13:35:42.313Z,10.50
2019-03-22T13:38:15.718Z,10.50
2019-03-22T13:40:49.150Z,10.50
2019-03-22T13:43:22.982Z,10.40
2019-03-22T13:45:56.440Z,10.40
2019-03-22T13:48:29.803Z,10.30
2019-03-22T13:51:04.360Z,10.30
2019-03-22T13:53:37.789Z,10.30
2019-03-22T13:56:11.190Z,10.30
2019-03-22T13:58:44.600Z,10.30
2019-03-22T14:01:18.018Z,10.20
2019-03-22T14:03:51.502Z,10.30
2019-03-22T14:06:24.894Z,10.30
2019-03-22T14:08:58.383Z,10.20
2019-03-22T14:11:31.792Z,10.30
2019-03-22T14:14:05.185Z,10.30
2019-03-22T14:16:38.613Z,10.30
2019-03-22T14:19:19.854Z,10.40
2019-03-22T14:21:57.184Z,10.40
2019-03-22T14:24:30.614Z,10.40
2019-03-22T14:27:04.484Z,10.50
2019-03-22T14:29:37.907Z,10.40
2019-03-22T14:32:11.346Z,10.40
2019-03-22T14:34:44.775Z,10.40
2019-03-22T14:37:26.035Z,10.40
2019-03-22T14:39:59.855Z,10.40
2019-03-22T14:42:33.221Z,10.30
2019-03-22T14:45:09.863Z,10.30
2019-03-22T14:47:43.324Z,10.40
2019-03-22T14:50:16.726Z,10.40
2019-03-22T14:52:57.822Z,10.30
2019-03-22T14:55:32.102Z,10.40
2019-03-22T14:58:05.381Z,10.40
2019-03-22T15:00:38.801Z,10.50
2019-03-22T15:03:28.088Z,10.70
2019-03-22T15:06:08.395Z,10.80
2019-03-22T15:08:41.817Z,10.70
2019-03-22T15:11:15.614Z,10.80
2019-03-22T15:13:50.731Z,10.80
2019-03-22T15:16:37.486Z,10.70
2019-03-22T15:19:23.134Z,10.70
2019-03-22T15:22:06.703Z,10.80
2019-03-22T15:24:41.684Z,10.80
2019-03-22T15:27:15.788Z,10.70
2019-03-22T15:29:48.928Z,10.80
2019-03-22T15:32:23.894Z,10.80
2019-03-22T15:35:14.947Z,10.80
2019-03-22T15:38:05.967Z,10.80
2019-03-22T15:40:39.281Z,10.90
2019-03-22T15:43:14.446Z,11.00
2019-03-22T15:45:48.202Z,11.00
2019-03-22T15:48:21.589Z,11.00
2019-03-22T15:50:55.242Z,11.00
2019-03-22T15:53:31.285Z,10.90
2019-03-22T15:56:05.745Z,10.80
2019-03-22T15:58:39.135Z,10.80
2019-03-22T16:01:13.295Z,10.80
2019-03-22T16:03:53.216Z,10.80
2019-03-22T16:06:27.426Z,10.80
2019-03-22T16:09:00.931Z,10.80
2019-03-22T16:11:41.012Z,10.70
2019-03-22T16:14:14.770Z,10.60
2019-03-22T16:16:51.869Z,10.60
2019-03-22T16:19:25.312Z,10.50
2019-03-22T16:21:58.722Z,10.50
2019-03-22T16:24:32.114Z,10.40
2019-03-22T16:27:06.001Z,10.40
2019-03-22T16:29:39.404Z,10.30
2019-03-22T16:32:13.105Z,10.20
2019-03-22T16:34:54.531Z,10.10
2019-03-22T16:37:28.094Z,10.10
2019-03-22T16:40:02.018Z,10.00
2019-03-22T16:42:35.463Z,9.90
2019-03-22T16:45:12.081Z,9.80
2019-03-22T16:47:47.110Z,9.70
2019-03-22T16:50:26.943Z,9.60
2019-03-22T16:53:00.539Z,9.50
2019-03-22T16:55:38.545Z,9.30
2019-03-22T16:58:14.098Z,9.20
2019-03-22T17:00:49.780Z,9.10
2019-03-22T17:03:24.515Z,8.80
2019-03-22T17:06:00.990Z,8.60
2019-03-22T17:08:38.753Z,8.50
2019-03-22T17:11:15.795Z,8.40
2019-03-22T17:13:49.930Z,8.30
2019-03-22T17:16:23.436Z,8.10
2019-03-22T17:18:57.664Z,8.10
2019-03-22T17:21:31.214Z,7.90
2019-03-22T17:24:06.063Z,7.90
2019-03-22T17:26:41.517Z,7.80
2019-03-22T17:29:16.973Z,7.70
2019-03-22T17:31:53.563Z,7.60
2019-03-22T17:41:00.275Z,7.00
2019-03-22T17:43:33.645Z,6.80
2019-03-22T17:46:07.115Z,6.70
2019-03-22T17:48:54.460Z,6.60
2019-03-22T17:51:27.855Z,6.60
2019-03-22T17:54:06.292Z,6.40
2019-03-22T17:56:40.208Z,6.50
2019-03-22T17:59:19.680Z,6.40
2019-03-22T18:01:55.503Z,6.30
2019-03-22T18:04:31.086Z,6.30
2019-03-22T18:07:05.077Z,6.20
2019-03-22T18:09:40.216Z,6.10
2019-03-22T18:12:13.846Z,6.00
2019-03-22T18:14:48.914Z,5.90
2019-03-22T18:17:22.794Z,5.80
2019-03-22T18:19:56.245Z,5.80
2019-03-22T18:22:31.111Z,5.80
2019-03-22T18:25:08.983Z,5.90
2019-03-22T18:27:43.763Z,5.80
2019-03-22T18:30:18.513Z,5.70
2019-03-22T18:32:52.935Z,5.70
2019-03-22T18:35:26.382Z,5.60
2019-03-22T18:38:01.463Z,5.40
2019-03-22T18:40:35.167Z,5.40
2019-03-22T18:43:08.548Z,5.20
2019-03-22T18:45:43.420Z,5.20
2019-03-22T18:48:17.666Z,5.20
2019-03-22T18:50:57.075Z,5.10
2019-03-22T18:53:30.256Z,5.00
2019-03-22T18:56:04.517Z,5.00
2019-03-22T18:58:38.365Z,5.00
2019-03-22T19:01:12.398Z,5.00
2019-03-22T19:03:47.125Z,4.60
2019-03-22T19:06:21.918Z,4.50
2019-03-22T19:08:56.215Z,4.60
2019-03-22T19:11:30.662Z,4.60
2019-03-22T19:14:06.212Z,4.50
2019-03-22T19:16:40.606Z,4.50
2019-03-22T19:19:15.666Z,4.50
2019-03-22T19:21:49.398Z,4.50
2019-03-22T19:24:23.046Z,4.40
2019-03-22T19:26:56.798Z,4.30
2019-03-22T19:29:30.185Z,4.30
2019-03-22T19:32:13.154Z,4.30
2019-03-22T19:34:40.614Z,4.30
2019-03-22T19:37:14.997Z,4.40
2019-03-22T19:39:49.292Z,4.30
2019-03-22T19:42:23.440Z,4.30
2019-03-22T19:44:56.773Z,4.20
2019-03-22T19:47:30.294Z,4.20
2019-03-22T19:50:04.928Z,4.10
2019-03-22T19:52:38.427Z,4.10
2019-03-22T19:55:13.265Z,4.00
2019-03-22T19:57:51.275Z,4.00
2019-03-22T20:00:24.644Z,4.00
2019-03-22T20:02:58.100Z,4.00
2019-03-22T20:05:35.078Z,4.00
2019-03-22T20:08:13.663Z,4.00
2019-03-22T20:10:45.931Z,4.00
2019-03-22T20:13:19.394Z,3.90
2019-03-22T20:15:53.828Z,3.80
2019-03-22T20:18:27.256Z,3.70
2019-03-22T20:21:00.642Z,3.70
2019-03-22T20:23:34.032Z,3.70
2019-03-22T20:26:07.395Z,3.60
2019-03-22T20:28:46.940Z,3.70
2019-03-22T20:31:20.219Z,3.60
2019-03-22T20:33:54.840Z,3.50
2019-03-22T20:36:29.285Z,3.60
2019-03-22T20:39:02.695Z,3.50
2019-03-22T20:41:36.979Z,3.50
2019-03-22T20:44:11.854Z,3.50
2019-03-22T20:46:45.238Z,3.50
2019-03-22T20:49:19.636Z,3.50
2019-03-22T20:51:53.946Z,3.50
2019-03-22T20:54:27.386Z,3.60
2019-03-22T20:57:00.727Z,3.60
2019-03-22T20:59:36.663Z,3.60
2019-03-22T21:02:11.039Z,3.70
2019-03-22T21:04:44.465Z,3.80
2019-03-22T21:07:17.838Z,3.80
2019-03-22T21:09:51.107Z,3.80
2019-03-22T21:12:27.804Z,3.90
2019-03-22T21:15:01.669Z,4.00
2019-03-22T21:17:34.939Z,3.90
2019-03-22T21:20:12.697Z,3.70
2019-03-22T21:22:46.214Z,3.70
2019-03-22T21:25:20.642Z,3.90
2019-03-22T21:27:53.898Z,3.90
2019-03-22T21:30:27.263Z,4.00
2019-03-22T21:33:01.643Z,4.00
2019-03-22T21:35:37.443Z,4.10
2019-03-22T21:38:11.355Z,4.30
2019-03-22T21:40:46.372Z,4.20
2019-03-22T21:43:21.958Z,4.20
2019-03-22T21:45:54.554Z,4.30
2019-03-22T21:48:27.953Z,4.40
2019-03-22T21:51:03.444Z,4.50
2019-03-22T21:53:42.205Z,4.60
2019-03-22T21:56:13.630Z,4.60
2019-03-22T21:58:46.937Z,4.60
2019-03-22T22:01:20.268Z,4.60
2019-03-22T22:03:56.646Z,4.70
2019-03-22T22:06:29.985Z,4.80
2019-03-22T22:09:04.224Z,4.80
2019-03-22T22:11:43.451Z,4.80
2019-03-22T22:14:18.400Z,4.80
2019-03-22T22:16:51.829Z,4.80
2019-03-22T22:19:25.306Z,5.00
2019-03-22T22:21:58.662Z,5.00
2019-03-22T22:24:32.073Z,4.90
2019-03-22T22:27:13.411Z,4.80
2019-03-22T22:29:40.532Z,4.70
2019-03-22T22:32:13.964Z,4.80
2019-03-22T22:34:47.315Z,4.90
2019-03-22T22:37:20.713Z,5.00
2019-03-22T22:39:54.033Z,4.90
2019-03-22T22:42:27.436Z,4.90
2019-03-22T22:45:00.844Z,4.90
2019-03-22T22:47:34.224Z,4.70
2019-03-22T22:50:12.614Z,4.80
2019-03-22T22:52:45.916Z,4.70
2019-03-22T22:55:20.120Z,4.50
2019-03-22T22:57:53.464Z,4.40
2019-03-22T23:00:28.685Z,4.40
2019-03-22T23:03:03.617Z,4.60
2019-03-22T23:05:37.018Z,4.60
2019-03-22T23:08:10.324Z,4.70
2019-03-22T23:10:43.712Z,4.70
2019-03-22T23:13:17.093Z,4.70
2019-03-22T23:15:50.503Z,4.70
2019-03-22T23:18:23.867Z,4.70
2019-03-22T23:20:57.275Z,4.60
2019-03-22T23:23:30.553Z,4.60
2019-03-22T23:26:03.966Z,4.60
2019-03-22T23:28:37.345Z,4.60
2019-03-22T23:31:10.758Z,4.50
2019-03-22T23:33:45.174Z,4.40
2019-03-22T23:36:20.790Z,4.40
2019-03-22T23:38:54.114Z,4.30
2019-03-22T23:41:27.540Z,4.30
2019-03-22T23:44:00.968Z,4.20
2019-03-22T23:46:34.490Z,4.20
2019-03-22T23:49:07.874Z,4.20
2019-03-22T23:51:41.230Z,4.20
